Time;durP1;ratioP1;P1;durP2;ratioP2;P2;SDS_P1;SDS_P2;PMS_P1;PMS_P2;Temp;Humidity;BMP_temperature;BMP_pressure;BME280_temperature;BME280_humidity;BME280_pressure;Samples;Min_cycle;Max_cycle;Signal;HPM_P1;HPM_P2
2022/04/29 00:00:51;;;;;;;17.30;7.50;;;;;;;;;;4952976;28;20433;-64
2022/04/29 00:03:17;;;;;;;14.98;7.28;;;;;;;;;;4953417;28;20419;-64
2022/04/29 00:05:43;;;;;;;15.60;7.78;;;;;;;;;;4953257;28;20307;-65
2022/04/29 00:08:10;;;;;;;15.93;7.50;;;;;;;;;;4954280;28;20468;-65
2022/04/29 00:10:36;;;;;;;13.80;7.05;;;;;;;;;;4951798;28;20481;-64
2022/04/29 00:13:04;;;;;;;16.13;7.85;;;;;;;;;;4952378;28;20440;-65
2022/04/29 00:15:29;;;;;;;15.73;7.55;;;;;;;;;;4951972;28;20440;-64
2022/04/29 00:17:55;;;;;;;16.13;7.75;;;;;;;;;;4952127;28;20388;-64
2022/04/29 00:20:21;;;;;;;14.20;7.07;;;;;;;;;;4951840;28;20444;-64
2022/04/29 00:22:46;;;;;;;15.65;7.82;;;;;;;;;;4952655;28;20346;-64
2022/04/29 00:25:12;;;;;;;14.25;7.45;;;;;;;;;;4951719;28;20452;-64
2022/04/29 00:27:40;;;;;;;13.77;7.30;;;;;;;;;;4951876;28;20537;-65
2022/04/29 00:30:06;;;;;;;14.35;7.22;;;;;;;;;;4951868;28;20421;-64
2022/04/29 00:32:32;;;;;;;18.10;7.80;;;;;;;;;;4950458;28;20465;-65
2022/04/29 00:34:57;;;;;;;21.05;7.95;;;;;;;;;;4952562;28;20460;-64
2022/04/29 00:37:22;;;;;;;16.40;7.63;;;;;;;;;;4951732;28;20404;-65
2022/04/29 00:39:48;;;;;;;15.40;7.18;;;;;;;;;;4951678;28;20060;-64
2022/04/29 00:42:15;;;;;;;15.52;8.20;;;;;;;;;;4951724;28;20397;-65
2022/04/29 00:44:41;;;;;;;17.45;8.70;;;;;;;;;;4950712;28;20329;-64
2022/04/29 00:47:09;;;;;;;17.98;7.95;;;;;;;;;;4951931;28;20342;-64
2022/04/29 00:49:34;;;;;;;17.30;9.25;;;;;;;;;;4934216;28;20319;-65
2022/04/29 00:52:00;;;;;;;17.30;8.32;;;;;;;;;;4951259;28;20388;-64
2022/04/29 00:54:28;;;;;;;17.73;7.65;;;;;;;;;;4952747;28;20425;-65
2022/04/29 00:56:55;;;;;;;18.65;8.02;;;;;;;;;;4933430;28;20496;-64
2022/04/29 00:59:40;;;;;;;21.98;8.90;;;;;;;;;;4951166;28;20433;-64
2022/04/29 01:02:08;;;;;;;16.02;8.43;;;;;;;;;;4927822;28;20033;-65
2022/04/29 01:04:40;;;;;;;15.75;8.32;;;;;;;;;;4951139;28;20037;-64
2022/04/29 01:07:05;;;;;;;14.82;7.53;;;;;;;;;;4951014;28;20503;-64
2022/04/29 01:09:31;;;;;;;16.33;8.27;;;;;;;;;;4950381;28;20500;-65
2022/04/29 01:11:56;;;;;;;18.52;8.15;;;;;;;;;;4951248;28;20480;-65
2022/04/29 01:14:22;;;;;;;21.85;9.15;;;;;;;;;;4952671;28;20372;-64
2022/04/29 01:16:47;;;;;;;20.30;8.48;;;;;;;;;;4951146;28;20192;-64
2022/04/29 01:19:12;;;;;;;13.43;7.88;;;;;;;;;;4951005;28;20386;-64
2022/04/29 01:21:38;;;;;;;15.30;8.65;;;;;;;;;;4951744;28;20470;-65
2022/04/29 01:24:03;;;;;;;19.25;8.35;;;;;;;;;;4950701;28;20441;-64
2022/04/29 01:26:28;;;;;;;12.95;6.88;;;;;;;;;;4951024;28;20512;-64
2022/04/29 01:28:54;;;;;;;16.13;7.93;;;;;;;;;;4951416;28;20428;-64
2022/04/29 01:31:23;;;;;;;21.25;8.50;;;;;;;;;;4950960;28;20451;-65
2022/04/29 01:33:49;;;;;;;15.57;8.77;;;;;;;;;;4950529;28;20033;-64
2022/04/29 01:36:14;;;;;;;15.77;8.27;;;;;;;;;;4951066;28;20512;-65
2022/04/29 01:38:40;;;;;;;17.55;8.68;;;;;;;;;;4950226;28;20337;-64
2022/04/29 01:41:06;;;;;;;17.73;8.50;;;;;;;;;;4952323;28;20489;-64
2022/04/29 01:43:33;;;;;;;15.07;7.78;;;;;;;;;;4950084;28;20342;-65
2022/04/29 01:45:58;;;;;;;15.48;8.05;;;;;;;;;;4950388;28;20467;-65
2022/04/29 01:48:24;;;;;;;13.50;7.68;;;;;;;;;;4950404;28;20315;-65
2022/04/29 01:50:50;;;;;;;16.02;8.55;;;;;;;;;;4950384;28;20441;-65
2022/04/29 01:53:15;;;;;;;16.83;8.32;;;;;;;;;;4950390;28;20429;-65
2022/04/29 01:55:40;;;;;;;16.17;7.75;;;;;;;;;;4950203;28;20395;-64
2022/04/29 01:58:06;;;;;;;16.98;8.10;;;;;;;;;;4950269;28;20109;-65
2022/04/29 02:00:31;;;;;;;15.82;7.28;;;;;;;;;;4950413;28;20356;-65
2022/04/29 02:02:57;;;;;;;14.07;8.15;;;;;;;;;;4933697;28;20322;-65
2022/04/29 02:05:23;;;;;;;17.23;8.40;;;;;;;;;;4932836;28;20377;-64
2022/04/29 02:07:48;;;;;;;18.55;8.18;;;;;;;;;;4950024;28;20360;-64
2022/04/29 02:10:14;;;;;;;13.25;7.97;;;;;;;;;;4949733;28;20350;-64
2022/04/29 02:12:39;;;;;;;16.17;8.35;;;;;;;;;;4950310;28;20552;-65
2022/04/29 02:15:05;;;;;;;16.20;8.60;;;;;;;;;;4949694;28;20435;-64
2022/04/29 02:17:30;;;;;;;17.45;7.97;;;;;;;;;;4948741;28;20405;-64
2022/04/29 02:19:56;;;;;;;13.68;7.70;;;;;;;;;;4949807;28;20113;-65
2022/04/29 02:22:21;;;;;;;17.27;7.80;;;;;;;;;;4950391;28;20030;-65
2022/04/29 02:24:46;;;;;;;17.25;8.80;;;;;;;;;;4950672;28;20417;-64
2022/04/29 02:27:12;;;;;;;17.95;8.90;;;;;;;;;;4950003;28;20455;-64
2022/04/29 02:29:37;;;;;;;14.95;7.70;;;;;;;;;;4950445;28;20453;-64
2022/04/29 02:32:02;;;;;;;19.63;8.63;;;;;;;;;;4951212;28;20323;-64
2022/04/29 02:34:28;;;;;;;14.35;7.60;;;;;;;;;;4949914;28;20508;-64
2022/04/29 02:36:53;;;;;;;14.93;7.43;;;;;;;;;;4951476;28;20440;-64
2022/04/29 02:39:19;;;;;;;15.95;8.02;;;;;;;;;;4949465;28;20412;-65
2022/04/29 02:41:45;;;;;;;14.35;8.20;;;;;;;;;;4949497;28;20431;-65
2022/04/29 02:44:11;;;;;;;16.75;7.95;;;;;;;;;;4949219;28;20496;-64
2022/04/29 02:47:06;;;;;;;16.90;8.13;;;;;;;;;;4949453;28;20496;-64
2022/04/29 02:49:21;;;;;;;16.33;8.88;;;;;;;;;;4949537;28;20041;-64
2022/04/29 02:51:47;;;;;;;14.05;7.70;;;;;;;;;;4950289;28;20057;-64
2022/04/29 02:54:12;;;;;;;17.08;7.68;;;;;;;;;;4950858;28;20557;-64
2022/04/29 02:56:37;;;;;;;14.27;7.35;;;;;;;;;;4952629;28;20417;-64
2022/04/29 02:59:03;;;;;;;15.50;8.30;;;;;;;;;;4953722;28;20444;-64
2022/04/29 03:01:28;;;;;;;17.33;7.63;;;;;;;;;;4953655;28;20325;-66
2022/04/29 03:03:54;;;;;;;16.17;7.93;;;;;;;;;;4953463;28;20501;-64
2022/04/29 03:06:19;;;;;;;17.02;7.78;;;;;;;;;;4953443;28;20445;-64
2022/04/29 03:08:44;;;;;;;12.60;6.85;;;;;;;;;;4953202;28;20496;-64
2022/04/29 03:11:10;;;;;;;17.58;7.75;;;;;;;;;;4952786;28;20488;-64
2022/04/29 03:13:35;;;;;;;20.15;8.52;;;;;;;;;;4953035;28;20030;-65
2022/04/29 03:16:00;;;;;;;15.75;8.13;;;;;;;;;;4953272;28;20443;-65
2022/04/29 03:18:26;;;;;;;16.02;7.90;;;;;;;;;;4953013;28;20444;-65
2022/04/29 03:20:53;;;;;;;12.60;6.82;;;;;;;;;;4954219;28;20453;-64
2022/04/29 03:23:19;;;;;;;15.63;7.00;;;;;;;;;;4953303;28;20427;-64
2022/04/29 03:25:44;;;;;;;18.02;7.95;;;;;;;;;;4952882;28;20333;-64
2022/04/29 03:28:09;;;;;;;16.58;7.75;;;;;;;;;;4953776;28;20440;-65
2022/04/29 03:30:35;;;;;;;12.52;7.13;;;;;;;;;;4954024;28;20436;-64
2022/04/29 03:33:04;;;;;;;18.85;8.57;;;;;;;;;;4954368;28;20388;-65
2022/04/29 03:35:30;;;;;;;11.73;7.88;;;;;;;;;;4952921;28;20348;-65
2022/04/29 03:37:56;;;;;;;18.25;7.97;;;;;;;;;;4952731;28;20524;-64
2022/04/29 03:40:23;;;;;;;15.10;7.57;;;;;;;;;;4952574;28;20397;-64
2022/04/29 03:42:49;;;;;;;13.85;6.78;;;;;;;;;;4953784;28;20418;-63
2022/04/29 03:45:15;;;;;;;16.52;6.97;;;;;;;;;;4953836;28;20433;-65
2022/04/29 03:47:41;;;;;;;17.83;7.75;;;;;;;;;;4953734;28;20480;-65
2022/04/29 03:50:06;;;;;;;17.75;8.23;;;;;;;;;;4952617;28;20460;-63
2022/04/29 03:52:32;;;;;;;15.43;7.93;;;;;;;;;;4953035;28;20075;-64
2022/04/29 03:54:57;;;;;;;16.73;8.07;;;;;;;;;;4951708;28;20083;-64
2022/04/29 03:57:23;;;;;;;17.92;7.40;;;;;;;;;;4954062;28;21149;-64
2022/04/29 03:59:49;;;;;;;13.88;6.82;;;;;;;;;;4952259;28;20453;-63
2022/04/29 04:02:14;;;;;;;15.85;7.13;;;;;;;;;;4953488;28;20453;-65
2022/04/29 04:04:39;;;;;;;12.70;7.25;;;;;;;;;;4952723;28;20029;-64
2022/04/29 04:07:05;;;;;;;16.38;8.30;;;;;;;;;;4952624;28;20422;-64
2022/04/29 04:09:30;;;;;;;15.45;6.88;;;;;;;;;;4952052;28;20141;-65
2022/04/29 04:11:56;;;;;;;19.55;8.18;;;;;;;;;;4952278;28;20517;-65
2022/04/29 04:14:21;;;;;;;17.17;7.90;;;;;;;;;;4952509;28;20441;-66
2022/04/29 04:16:47;;;;;;;14.73;8.07;;;;;;;;;;4952092;28;20580;-65
2022/04/29 04:19:12;;;;;;;15.23;7.82;;;;;;;;;;4953829;28;20372;-64
2022/04/29 04:21:38;;;;;;;17.48;7.53;;;;;;;;;;4951865;28;20349;-65
2022/04/29 04:24:04;;;;;;;14.50;7.75;;;;;;;;;;4952459;28;20030;-65
2022/04/29 04:26:29;;;;;;;16.42;7.22;;;;;;;;;;4951740;28;20392;-65
2022/04/29 04:28:54;;;;;;;14.65;7.88;;;;;;;;;;4952153;28;20419;-64
2022/04/29 04:31:21;;;;;;;19.38;9.32;;;;;;;;;;4951631;28;20476;-64
2022/04/29 04:33:50;;;;;;;18.88;9.13;;;;;;;;;;4953233;28;20406;-65
2022/04/29 04:36:15;;;;;;;13.75;7.47;;;;;;;;;;4951480;28;20457;-65
2022/04/29 04:38:42;;;;;;;16.58;8.45;;;;;;;;;;4951909;28;20523;-65
2022/04/29 04:41:08;;;;;;;14.35;7.50;;;;;;;;;;4951905;28;20332;-65
2022/04/29 04:43:35;;;;;;;17.77;8.23;;;;;;;;;;4951838;28;20318;-65
2022/04/29 04:46:01;;;;;;;15.57;8.88;;;;;;;;;;4951488;28;20430;-64
2022/04/29 04:48:26;;;;;;;18.52;8.50;;;;;;;;;;4951829;28;20377;-64
2022/04/29 04:50:51;;;;;;;19.73;8.38;;;;;;;;;;4951515;28;20479;-65
2022/04/29 04:53:17;;;;;;;16.33;9.15;;;;;;;;;;4951445;28;20496;-64
2022/04/29 04:55:42;;;;;;;15.13;8.38;;;;;;;;;;4952817;28;20140;-65
2022/04/29 04:58:09;;;;;;;17.85;8.68;;;;;;;;;;4951479;28;20451;-68
2022/04/29 05:00:35;;;;;;;15.85;8.52;;;;;;;;;;4951307;28;20422;-65
2022/04/29 05:03:00;;;;;;;13.90;8.32;;;;;;;;;;4951134;28;20453;-65
2022/04/29 05:05:27;;;;;;;17.50;8.70;;;;;;;;;;4952158;28;20410;-65
2022/04/29 05:07:52;;;;;;;17.38;8.73;;;;;;;;;;4951485;28;20370;-65
2022/04/29 05:10:18;;;;;;;19.23;9.13;;;;;;;;;;4951437;28;20396;-65
2022/04/29 05:12:46;;;;;;;15.60;8.00;;;;;;;;;;4951213;28;20042;-65
2022/04/29 05:15:12;;;;;;;19.30;8.75;;;;;;;;;;4950750;28;20449;-64
2022/04/29 05:17:40;;;;;;;17.08;8.90;;;;;;;;;;4950545;28;20456;-64
2022/04/29 05:20:07;;;;;;;19.17;9.13;;;;;;;;;;4951311;28;20059;-65
2022/04/29 05:22:33;;;;;;;19.92;9.52;;;;;;;;;;4949380;28;20512;-64
2022/04/29 05:24:58;;;;;;;19.45;8.57;;;;;;;;;;4950211;28;20503;-65
2022/04/29 05:27:24;;;;;;;18.95;8.60;;;;;;;;;;4951044;28;20041;-64
2022/04/29 05:29:49;;;;;;;17.95;9.40;;;;;;;;;;4950545;28;20083;-64
2022/04/29 05:32:15;;;;;;;16.45;8.27;;;;;;;;;;4950572;28;20381;-65
2022/04/29 05:34:41;;;;;;;19.92;9.60;;;;;;;;;;4951871;28;20426;-64
2022/04/29 05:37:06;;;;;;;17.48;8.80;;;;;;;;;;4950670;28;20375;-65
2022/04/29 05:42:17;;;;;;;19.50;8.52;;;;;;;;;;4950959;28;20515;-65
2022/04/29 05:44:42;;;;;;;15.85;8.35;;;;;;;;;;4932965;28;20025;-65
2022/04/29 05:47:08;;;;;;;18.60;9.23;;;;;;;;;;4951685;28;20065;-65
2022/04/29 05:49:33;;;;;;;18.73;8.70;;;;;;;;;;4950692;28;20384;-65
2022/04/29 05:52:00;;;;;;;18.30;9.60;;;;;;;;;;4950099;28;20421;-64
2022/04/29 05:54:26;;;;;;;17.58;9.02;;;;;;;;;;4950096;28;20540;-66
2022/04/29 05:56:51;;;;;;;18.15;9.68;;;;;;;;;;4949909;28;20377;-65
2022/04/29 05:59:17;;;;;;;17.70;8.57;;;;;;;;;;4950059;28;20100;-65
2022/04/29 06:01:42;;;;;;;22.27;9.50;;;;;;;;;;4932383;28;20385;-65
2022/04/29 06:04:07;;;;;;;21.65;9.88;;;;;;;;;;4949972;28;20445;-65
2022/04/29 06:06:33;;;;;;;16.52;8.85;;;;;;;;;;4950220;28;20319;-65
2022/04/29 06:08:59;;;;;;;15.85;9.73;;;;;;;;;;4949761;28;20440;-65
2022/04/29 06:11:24;;;;;;;18.25;9.10;;;;;;;;;;4950575;28;20421;-65
2022/04/29 06:13:50;;;;;;;15.38;8.85;;;;;;;;;;4950244;28;20365;-64
2022/04/29 06:16:17;;;;;;;16.67;8.45;;;;;;;;;;4949793;28;20029;-65
2022/04/29 06:18:43;;;;;;;18.13;8.75;;;;;;;;;;4951402;28;20322;-65
2022/04/29 06:21:08;;;;;;;16.40;8.65;;;;;;;;;;4950045;28;20369;-64
2022/04/29 06:23:33;;;;;;;17.50;8.75;;;;;;;;;;4949664;28;20061;-65
2022/04/29 06:25:59;;;;;;;17.50;9.25;;;;;;;;;;4950935;28;20337;-65
2022/04/29 06:28:24;;;;;;;19.92;8.70;;;;;;;;;;4949735;28;20376;-65
2022/04/29 06:30:50;;;;;;;20.10;9.27;;;;;;;;;;4949981;28;20488;-64
2022/04/29 06:33:16;;;;;;;20.17;8.45;;;;;;;;;;4949748;28;20364;-65
2022/04/29 06:35:42;;;;;;;16.90;8.40;;;;;;;;;;4951161;28;20439;-64
2022/04/29 06:38:12;;;;;;;15.43;9.20;;;;;;;;;;4949652;28;20359;-65
2022/04/29 06:40:37;;;;;;;;;;;;;;;;;;4950315;28;20400;-66
2022/04/29 06:43:02;;;;;;;16.52;8.40;;;;;;;;;;4949224;28;19909;-65
2022/04/29 06:45:28;;;;;;;16.95;8.88;;;;;;;;;;4949706;28;20465;-65
2022/04/29 06:47:53;;;;;;;19.25;9.25;;;;;;;;;;4949880;28;20472;-65
2022/04/29 06:50:18;;;;;;;17.23;8.80;;;;;;;;;;4949821;28;20527;-64
2022/04/29 06:52:43;;;;;;;18.17;8.55;;;;;;;;;;4949119;28;20307;-65
2022/04/29 06:55:09;;;;;;;20.13;8.95;;;;;;;;;;4949559;28;20492;-64
2022/04/29 06:57:34;;;;;;;15.35;8.45;;;;;;;;;;4950809;28;20116;-65
2022/04/29 07:00:00;;;;;;;18.88;9.57;;;;;;;;;;4949261;28;20349;-64
2022/04/29 07:02:25;;;;;;;14.80;8.38;;;;;;;;;;4949801;28;20049;-65
2022/04/29 07:04:53;;;;;;;15.15;8.63;;;;;;;;;;4949346;28;20373;-66
2022/04/29 07:07:18;;;;;;;20.30;9.18;;;;;;;;;;4949459;28;20370;-65
2022/04/29 07:09:44;;;;;;;21.05;9.32;;;;;;;;;;4949593;28;20072;-64
2022/04/29 07:12:10;;;;;;;18.75;9.30;;;;;;;;;;4949478;28;20060;-65
2022/04/29 07:14:35;;;;;;;19.15;9.43;;;;;;;;;;4949377;28;20496;-64
2022/04/29 07:17:01;;;;;;;18.60;8.50;;;;;;;;;;4950474;28;20429;-65
2022/04/29 07:19:26;;;;;;;17.65;8.45;;;;;;;;;;4949585;28;20385;-65
2022/04/29 07:21:51;;;;;;;15.02;7.95;;;;;;;;;;4949252;28;20361;-64
2022/04/29 07:24:18;;;;;;;18.23;8.52;;;;;;;;;;4949646;28;20384;-65
2022/04/29 07:26:43;;;;;;;17.45;8.43;;;;;;;;;;4949129;28;20508;-64
2022/04/29 07:29:09;;;;;;;20.33;8.88;;;;;;;;;;4950379;28;20440;-65
2022/04/29 07:31:34;;;;;;;15.02;7.75;;;;;;;;;;4949129;28;20412;-64
2022/04/29 07:34:00;;;;;;;19.58;9.07;;;;;;;;;;4949639;28;20104;-65
2022/04/29 07:41:53;;;;;;;19.83;8.35;;;;;;;;;;4951283;28;20656;-64
2022/04/29 07:44:18;;;;;;;18.92;8.23;;;;;;;;;;4952796;28;20417;-65
2022/04/29 07:46:46;;;;;;;19.65;8.60;;;;;;;;;;4952341;28;20096;-64
2022/04/29 07:49:11;;;;;;;19.65;7.57;;;;;;;;;;4952420;28;20515;-64
2022/04/29 07:51:37;;;;;;;14.00;7.30;;;;;;;;;;4952650;28;20412;-64
2022/04/29 07:54:06;;;;;;;20.92;8.32;;;;;;;;;;4952790;28;20099;-64
2022/04/29 07:56:31;;;;;;;13.82;7.40;;;;;;;;;;4952520;28;20400;-64
2022/04/29 07:58:57;;;;;;;19.73;8.25;;;;;;;;;;4952453;28;20343;-64
2022/04/29 08:01:26;;;;;;;19.35;8.43;;;;;;;;;;4952125;28;20342;-65
2022/04/29 08:03:54;;;;;;;15.10;7.90;;;;;;;;;;4952940;28;20352;-64
2022/04/29 08:06:20;;;;;;;16.55;8.00;;;;;;;;;;4951970;28;20052;-65
2022/04/29 08:08:46;;;;;;;14.82;7.65;;;;;;;;;;4952278;28;20025;-64
2022/04/29 08:11:11;;;;;;;18.52;7.38;;;;;;;;;;4950801;28;20067;-65
2022/04/29 08:13:38;;;;;;;13.52;6.85;;;;;;;;;;4951897;28;20423;-64
2022/04/29 08:16:04;;;;;;;14.38;7.88;;;;;;;;;;4951693;28;20449;-64
2022/04/29 08:18:29;;;;;;;14.50;7.18;;;;;;;;;;4952304;28;20449;-65
2022/04/29 08:20:56;;;;;;;12.63;6.68;;;;;;;;;;4951512;28;20507;-65
2022/04/29 08:23:21;;;;;;;14.43;7.05;;;;;;;;;;4952985;28;20469;-64
2022/04/29 08:25:47;;;;;;;12.77;6.68;;;;;;;;;;4952542;28;20504;-65
2022/04/29 08:28:12;;;;;;;12.50;7.40;;;;;;;;;;4951740;28;20508;-64
2022/04/29 08:30:38;;;;;;;16.65;7.72;;;;;;;;;;4951758;28;20349;-65
2022/04/29 08:33:03;;;;;;;16.60;7.13;;;;;;;;;;4952087;28;20026;-64
2022/04/29 08:35:29;;;;;;;12.77;6.47;;;;;;;;;;4952394;28;20433;-65
2022/04/29 08:37:56;;;;;;;11.68;6.28;;;;;;;;;;4951876;28;20791;-65
2022/04/29 08:40:22;;;;;;;12.45;6.57;;;;;;;;;;4953103;28;20457;-64
2022/04/29 08:42:48;;;;;;;14.18;6.63;;;;;;;;;;4953285;28;20418;-65
2022/04/29 08:45:15;;;;;;;15.00;7.20;;;;;;;;;;4951687;28;20145;-64
2022/04/29 08:47:43;;;;;;;13.00;6.60;;;;;;;;;;4951422;28;20389;-65
2022/04/29 08:50:10;;;;;;;12.02;6.45;;;;;;;;;;4950988;28;20416;-65
2022/04/29 08:52:36;;;;;;;12.27;6.20;;;;;;;;;;4950792;28;20417;-65
2022/04/29 09:00:32;;;;;;;11.95;6.28;;;;;;;;;;4951249;28;20444;-65
2022/04/29 09:03:00;;;;;;;10.80;5.82;;;;;;;;;;4951568;28;20469;-64
2022/04/29 09:05:25;;;;;;;17.08;6.97;;;;;;;;;;4952073;28;20476;-64
2022/04/29 09:08:01;;;;;;;10.65;5.82;;;;;;;;;;4951287;28;20385;-65
2022/04/29 09:10:33;;;;;;;13.27;6.07;;;;;;;;;;4950719;28;20485;-65
2022/04/29 09:13:16;;;;;;;15.77;6.45;;;;;;;;;;4951678;28;20441;-64
2022/04/29 09:15:59;;;;;;;13.30;6.85;;;;;;;;;;4951366;28;20449;-66
2022/04/29 09:18:39;;;;;;;11.50;5.50;;;;;;;;;;4951088;28;20334;-64
2022/04/29 09:21:15;;;;;;;13.52;5.10;;;;;;;;;;4951016;28;20054;-65
2022/04/29 09:23:44;;;;;;;11.13;5.30;;;;;;;;;;4951466;28;20409;-65
2022/04/29 09:26:23;;;;;;;13.57;6.53;;;;;;;;;;4951534;28;20376;-65
2022/04/29 09:28:50;;;;;;;11.88;5.97;;;;;;;;;;4951336;28;20370;-65
2022/04/29 09:31:15;;;;;;;9.15;5.10;;;;;;;;;;4952330;28;20541;-64
2022/04/29 09:33:52;;;;;;;13.85;5.57;;;;;;;;;;4951282;28;20333;-65
2022/04/29 09:36:26;;;;;;;10.93;5.47;;;;;;;;;;4950917;28;20397;-65
2022/04/29 09:41:37;;;;;;;10.95;5.30;;;;;;;;;;4936613;28;20482;-64
2022/04/29 09:44:02;;;;;;;11.90;5.93;;;;;;;;;;4951154;28;20069;-64
2022/04/29 09:46:28;;;;;;;9.95;5.68;;;;;;;;;;4951687;28;20508;-65
2022/04/29 09:49:08;;;;;;;11.00;5.13;;;;;;;;;;4951061;28;20421;-65
2022/04/29 09:51:41;;;;;;;10.18;5.70;;;;;;;;;;4950394;28;20105;-64
2022/04/29 09:54:16;;;;;;;12.30;5.40;;;;;;;;;;4951339;28;20483;-64
2022/04/29 09:56:46;;;;;;;9.50;5.18;;;;;;;;;;4950368;28;20445;-64
2022/04/29 09:59:12;;;;;;;12.43;5.20;;;;;;;;;;4950220;28;20346;-64
2022/04/29 10:01:38;;;;;;;10.10;4.80;;;;;;;;;;4950761;28;20460;-64
2022/04/29 10:04:03;;;;;;;11.82;4.82;;;;;;;;;;4932577;28;20381;-64
2022/04/29 10:06:29;;;;;;;10.65;5.60;;;;;;;;;;4951769;28;20302;-64
2022/04/29 10:08:57;;;;;;;10.02;4.97;;;;;;;;;;4950371;28;20030;-65
2022/04/29 10:11:23;;;;;;;8.95;4.60;;;;;;;;;;4950205;28;20532;-64
2022/04/29 10:13:50;;;;;;;11.23;5.65;;;;;;;;;;4950581;28;20428;-65
2022/04/29 10:16:18;;;;;;;6.55;4.03;;;;;;;;;;4949729;28;20349;-65
2022/04/29 10:21:44;;;;;;;11.02;5.75;;;;;;;;;;4935979;28;20436;-65
2022/04/29 10:24:09;;;;;;;8.00;4.37;;;;;;;;;;4932556;28;20385;-64
2022/04/29 10:26:35;;;;;;;9.95;5.40;;;;;;;;;;4950174;28;20409;-64
2022/04/29 10:29:00;;;;;;;8.52;5.18;;;;;;;;;;4949813;28;20397;-64
2022/04/29 10:31:27;;;;;;;9.65;5.10;;;;;;;;;;4951670;28;20038;-64
2022/04/29 10:33:52;;;;;;;9.35;5.25;;;;;;;;;;4950593;28;20049;-64
2022/04/29 10:36:22;;;;;;;9.02;4.45;;;;;;;;;;4949781;28;20029;-64
2022/04/29 10:38:47;;;;;;;8.45;4.88;;;;;;;;;;4949916;28;20427;-64
2022/04/29 10:41:17;;;;;;;9.75;4.78;;;;;;;;;;4949962;28;20385;-65
2022/04/29 10:43:52;;;;;;;8.65;4.53;;;;;;;;;;4932984;28;20429;-64
2022/04/29 10:46:21;;;;;;;8.85;4.20;;;;;;;;;;4949881;28;20123;-65
2022/04/29 10:48:53;;;;;;;7.72;4.30;;;;;;;;;;4950784;28;20437;-64
2022/04/29 10:51:25;;;;;;;8.57;4.50;;;;;;;;;;4916593;28;20349;-64
2022/04/29 10:53:53;;;;;;;8.43;4.13;;;;;;;;;;4950904;28;20434;-64
2022/04/29 10:56:31;;;;;;;11.70;4.15;;;;;;;;;;4950171;28;20418;-65
2022/04/29 10:59:11;;;;;;;8.23;4.32;;;;;;;;;;4950206;28;20449;-63
2022/04/29 11:01:39;;;;;;;7.63;4.10;;;;;;;;;;4949717;28;20334;-64
2022/04/29 11:04:25;;;;;;;7.55;4.65;;;;;;;;;;4950579;28;20510;-65
2022/04/29 11:06:52;;;;;;;9.77;4.40;;;;;;;;;;4941787;28;20424;-64
2022/04/29 11:09:31;;;;;;;9.70;4.30;;;;;;;;;;4931436;28;20536;-64
2022/04/29 11:12:00;;;;;;;7.65;4.07;;;;;;;;;;4949406;28;20390;-64
2022/04/29 11:14:26;;;;;;;9.95;4.35;;;;;;;;;;4949453;28;20034;-65
2022/04/29 11:17:08;;;;;;;6.90;3.95;;;;;;;;;;4950603;28;20109;-65
2022/04/29 11:19:35;;;;;;;6.65;3.75;;;;;;;;;;4953814;28;20511;-64
2022/04/29 11:24:51;;;;;;;8.88;4.32;;;;;;;;;;4954168;28;20463;-64
2022/04/29 11:27:27;;;;;;;9.05;4.13;;;;;;;;;;4953427;28;20408;-65
2022/04/29 11:29:54;;;;;;;8.18;4.40;;;;;;;;;;4954223;28;20373;-65
2022/04/29 11:32:26;;;;;;;8.93;4.20;;;;;;;;;;4953738;28;20315;-64
2022/04/29 11:34:52;;;;;;;8.70;4.03;;;;;;;;;;4953413;28;20532;-65
2022/04/29 11:37:28;;;;;;;8.93;4.00;;;;;;;;;;4953295;28;20034;-64
2022/04/29 11:40:05;;;;;;;7.47;4.00;;;;;;;;;;4953241;28;20060;-64
2022/04/29 11:42:31;;;;;;;6.85;4.25;;;;;;;;;;4952784;28;20511;-64
2022/04/29 11:45:07;;;;;;;8.35;3.90;;;;;;;;;;4953490;28;20361;-65
2022/04/29 11:47:32;;;;;;;9.70;3.90;;;;;;;;;;4953325;28;20484;-65
2022/04/29 11:49:58;;;;;;;7.82;4.32;;;;;;;;;;4952704;28;20437;-65
2022/04/29 11:52:30;;;;;;;8.40;3.83;;;;;;;;;;4953406;28;20448;-65
2022/04/29 11:55:05;;;;;;;7.68;3.92;;;;;;;;;;4952805;28;20077;-64
2022/04/29 11:57:33;;;;;;;8.40;3.70;;;;;;;;;;4953904;28;20452;-64
2022/04/29 12:00:00;;;;;;;5.95;3.05;;;;;;;;;;4953606;28;20889;-65
2022/04/29 12:02:26;;;;;;;6.68;3.10;;;;;;;;;;4952637;28;20476;-64
2022/04/29 12:05:03;;;;;;;6.57;4.00;;;;;;;;;;4954515;28;20437;-64
2022/04/29 12:07:37;;;;;;;5.68;3.30;;;;;;;;;;4952116;28;20303;-64
2022/04/29 12:10:14;;;;;;;6.18;3.53;;;;;;;;;;4952065;28;20053;-64
2022/04/29 12:12:40;;;;;;;7.72;4.25;;;;;;;;;;4952429;28;20358;-65
2022/04/29 12:15:09;;;;;;;8.45;3.83;;;;;;;;;;4952340;28;20109;-65
2022/04/29 12:17:36;;;;;;;6.85;4.20;;;;;;;;;;4953904;28;20093;-64
2022/04/29 12:20:04;;;;;;;7.63;3.63;;;;;;;;;;4953003;28;20414;-64
2022/04/29 12:22:33;;;;;;;7.88;3.58;;;;;;;;;;4952200;28;20448;-64
2022/04/29 12:25:16;;;;;;;;;;;;;;;;;;4952730;28;20326;-65
2022/04/29 12:27:41;;;;;;;4.72;2.75;;;;;;;;;;4951949;28;20267;-65
2022/04/29 12:35:50;;;;;;;5.40;3.22;;;;;;;;;;4952147;28;20446;-65
2022/04/29 12:38:18;;;;;;;6.25;3.85;;;;;;;;;;4953025;28;20030;-64
2022/04/29 12:40:44;;;;;;;5.40;3.40;;;;;;;;;;4952182;28;20500;-64
2022/04/29 12:43:13;;;;;;;6.78;3.15;;;;;;;;;;4934806;28;20473;-64
2022/04/29 12:45:38;;;;;;;5.05;2.78;;;;;;;;;;4952600;28;20433;-64
2022/04/29 12:48:05;;;;;;;6.10;3.42;;;;;;;;;;4951672;28;20512;-64
2022/04/29 12:50:38;;;;;;;7.13;3.28;;;;;;;;;;4934560;28;20034;-64
2022/04/29 12:53:04;;;;;;;5.78;2.63;;;;;;;;;;4951585;28;20026;-64
2022/04/29 12:55:37;;;;;;;5.50;2.90;;;;;;;;;;4951518;28;20468;-64
2022/04/29 12:58:20;;;;;;;8.00;3.50;;;;;;;;;;4951782;28;20497;-63
2022/04/29 13:00:50;;;;;;;8.68;3.05;;;;;;;;;;4951084;28;20450;-64
2022/04/29 13:03:18;;;;;;;5.97;3.35;;;;;;;;;;4949172;28;20133;-64
2022/04/29 13:05:43;;;;;;;8.40;3.63;;;;;;;;;;4951397;28;20030;-64
2022/04/29 13:08:09;;;;;;;5.05;2.83;;;;;;;;;;4952147;28;20026;-64
2022/04/29 13:10:46;;;;;;;6.30;2.90;;;;;;;;;;4951640;28;20445;-64
2022/04/29 13:13:13;;;;;;;5.93;3.17;;;;;;;;;;4952343;28;20442;-65
2022/04/29 13:15:41;;;;;;;6.85;3.00;;;;;;;;;;4951001;28;20049;-64
2022/04/29 13:18:07;;;;;;;5.95;2.83;;;;;;;;;;4951895;28;20295;-65
2022/04/29 13:20:32;;;;;;;6.85;3.50;;;;;;;;;;4951618;28;20345;-65
2022/04/29 13:22:57;;;;;;;5.20;2.83;;;;;;;;;;4950986;28;20088;-64
2022/04/29 13:25:23;;;;;;;4.65;2.78;;;;;;;;;;4951014;28;20360;-64
2022/04/29 13:27:48;;;;;;;7.28;2.90;;;;;;;;;;4950721;28;20437;-64
2022/04/29 13:30:14;;;;;;;4.18;2.63;;;;;;;;;;4951177;28;20022;-65
2022/04/29 13:32:40;;;;;;;6.07;2.70;;;;;;;;;;4950755;28;20551;-65
2022/04/29 13:35:06;;;;;;;7.07;3.17;;;;;;;;;;4951739;28;20427;-64
2022/04/29 13:37:32;;;;;;;4.47;2.35;;;;;;;;;;4950613;28;20477;-64
2022/04/29 13:39:59;;;;;;;5.30;2.72;;;;;;;;;;4949909;28;20568;-64
2022/04/29 13:42:24;;;;;;;4.40;2.60;;;;;;;;;;4952022;28;20053;-64
2022/04/29 13:44:50;;;;;;;3.17;2.13;;;;;;;;;;4950567;28;20417;-65
2022/04/29 13:47:16;;;;;;;8.10;2.80;;;;;;;;;;4950981;28;20092;-64
2022/04/29 13:49:41;;;;;;;6.93;2.65;;;;;;;;;;4950760;28;20041;-64
2022/04/29 13:54:50;;;;;;;6.07;2.42;;;;;;;;;;4951886;28;20340;-63
2022/04/29 13:57:16;;;;;;;5.43;2.97;;;;;;;;;;4951211;28;20318;-64
2022/04/29 13:59:41;;;;;;;5.05;2.35;;;;;;;;;;4949932;28;20414;-64
2022/04/29 14:02:08;;;;;;;5.90;2.67;;;;;;;;;;4950691;28;20979;-63
2022/04/29 14:04:33;;;;;;;4.03;2.58;;;;;;;;;;4951424;28;20377;-64
2022/04/29 14:06:58;;;;;;;5.22;2.40;;;;;;;;;;4951388;28;20030;-63
2022/04/29 14:09:23;;;;;;;3.90;2.38;;;;;;;;;;4950376;28;20449;-64
2022/04/29 14:11:50;;;;;;;4.07;2.30;;;;;;;;;;4950262;28;20104;-64
2022/04/29 14:14:15;;;;;;;5.63;2.78;;;;;;;;;;4933050;28;20101;-64
2022/04/29 14:16:41;;;;;;;5.22;2.10;;;;;;;;;;4950382;28;20033;-64
2022/04/29 14:19:06;;;;;;;5.22;2.63;;;;;;;;;;4950355;28;20473;-65
2022/04/29 14:21:31;;;;;;;3.53;2.30;;;;;;;;;;4950921;28;20442;-64
2022/04/29 14:23:56;;;;;;;3.85;2.17;;;;;;;;;;4949933;28;20444;-64
2022/04/29 14:26:22;;;;;;;3.78;2.28;;;;;;;;;;4950185;28;20445;-64
2022/04/29 14:28:49;;;;;;;5.15;2.35;;;;;;;;;;4950040;28;20109;-65
2022/04/29 14:31:16;;;;;;;4.68;2.55;;;;;;;;;;4950110;28;20530;-64
2022/04/29 14:33:42;;;;;;;3.63;2.42;;;;;;;;;;4950493;28;20056;-64
2022/04/29 14:36:08;;;;;;;3.75;2.10;;;;;;;;;;4951284;28;20461;-65
2022/04/29 14:38:34;;;;;;;4.55;2.15;;;;;;;;;;4950855;28;20388;-64
2022/04/29 14:40:59;;;;;;;3.95;2.10;;;;;;;;;;4950635;28;20306;-64
2022/04/29 14:43:25;;;;;;;4.40;2.40;;;;;;;;;;4949667;28;20393;-64
2022/04/29 14:45:50;;;;;;;4.68;2.53;;;;;;;;;;4950095;28;20524;-64
2022/04/29 14:48:16;;;;;;;4.80;2.47;;;;;;;;;;4949780;28;20422;-65
2022/04/29 14:50:41;;;;;;;3.38;1.95;;;;;;;;;;4949298;28;20457;-64
2022/04/29 14:53:07;;;;;;;4.18;2.35;;;;;;;;;;4932138;28;20516;-64
2022/04/29 14:55:32;;;;;;;4.88;2.30;;;;;;;;;;4949778;28;20464;-65
2022/04/29 14:57:58;;;;;;;3.72;1.80;;;;;;;;;;4932467;28;20437;-64
2022/04/29 15:00:23;;;;;;;4.32;2.45;;;;;;;;;;4949842;28;20403;-65
2022/04/29 15:02:49;;;;;;;3.42;2.10;;;;;;;;;;4949248;28;20395;-65
2022/04/29 15:05:16;;;;;;;3.83;2.22;;;;;;;;;;4949636;28;20395;-64